sensor_id;sensor_type;location;lat;lon;timestamp;pressure;altitude;pressure_sealevel;temperature;humidity
69574;BME280;62840;52.366;5.980;2022-12-20T00:01:51;101241.72;;;9.36;75.26
69574;BME280;62840;52.366;5.980;2022-12-20T00:04:17;101237.56;;;9.32;75.20
69574;BME280;62840;52.366;5.980;2022-12-20T00:06:43;101242.88;;;9.32;75.25
69574;BME280;62840;52.366;5.980;2022-12-20T00:09:10;101237.66;;;9.31;75.33
69574;BME280;62840;52.366;5.980;2022-12-20T00:11:38;101236.59;;;9.33;75.20
69574;BME280;62840;52.366;5.980;2022-12-20T00:14:04;101233.38;;;9.28;75.19
69574;BME280;62840;52.366;5.980;2022-12-20T00:16:35;101236.81;;;9.30;75.30
69574;BME280;62840;52.366;5.980;2022-12-20T00:19:04;101222.72;;;9.28;75.20
69574;BME280;62840;52.366;5.980;2022-12-20T00:21:32;101229.81;;;9.29;75.08
69574;BME280;62840;52.366;5.980;2022-12-20T00:23:59;101206.75;;;9.28;75.30
69574;BME280;62840;52.366;5.980;2022-12-20T00:26:26;101211.19;;;9.29;75.22
69574;BME280;62840;52.366;5.980;2022-12-20T00:28:54;101200.59;;;9.28;75.20
69574;BME280;62840;52.366;5.980;2022-12-20T00:31:22;101210.41;;;9.27;75.26
69574;BME280;62840;52.366;5.980;2022-12-20T00:33:53;101204.09;;;9.28;75.12
69574;BME280;62840;52.366;5.980;2022-12-20T00:36:21;101204.88;;;9.30;75.19
69574;BME280;62840;52.366;5.980;2022-12-20T00:38:50;101211.91;;;9.31;75.27
69574;BME280;62840;52.366;5.980;2022-12-20T00:41:20;101216.38;;;9.31;75.22
69574;BME280;62840;52.366;5.980;2022-12-20T00:43:48;101216.38;;;9.31;75.19
69574;BME280;62840;52.366;5.980;2022-12-20T00:46:17;101212.75;;;9.32;75.15
69574;BME280;62840;52.366;5.980;2022-12-20T00:48:44;101213.38;;;9.35;75.08
69574;BME280;62840;52.366;5.980;2022-12-20T00:51:14;101197.19;;;9.38;75.02
69574;BME280;62840;52.366;5.980;2022-12-20T00:53:42;101198.78;;;9.41;75.04
69574;BME280;62840;52.366;5.980;2022-12-20T00:56:09;101206.69;;;9.43;74.88
69574;BME280;62840;52.366;5.980;2022-12-20T00:58:37;101200.38;;;9.44;74.98
69574;BME280;62840;52.366;5.980;2022-12-20T01:01:06;101201.03;;;9.47;74.67
69574;BME280;62840;52.366;5.980;2022-12-20T01:03:40;101203.44;;;9.50;74.82
69574;BME280;62840;52.366;5.980;2022-12-20T01:06:06;101212.06;;;9.54;74.81
69574;BME280;62840;52.366;5.980;2022-12-20T01:08:35;101208.44;;;9.55;74.75
69574;BME280;62840;52.366;5.980;2022-12-20T01:11:02;101202.69;;;9.61;74.68
69574;BME280;62840;52.366;5.980;2022-12-20T01:13:34;101198.84;;;9.65;74.57
69574;BME280;62840;52.366;5.980;2022-12-20T01:16:03;101209.34;;;9.67;74.49
69574;BME280;62840;52.366;5.980;2022-12-20T01:18:29;101210.94;;;9.69;74.56
69574;BME280;62840;52.366;5.980;2022-12-20T01:21:00;101205.41;;;9.72;74.41
69574;BME280;62840;52.366;5.980;2022-12-20T01:23:27;101206.16;;;9.74;74.30
69574;BME280;62840;52.366;5.980;2022-12-20T01:25:56;101211.97;;;9.79;74.25
69574;BME280;62840;52.366;5.980;2022-12-20T01:28:23;101212.63;;;9.83;74.28
69574;BME280;62840;52.366;5.980;2022-12-20T01:30:48;101209.81;;;9.84;74.21
69574;BME280;62840;52.366;5.980;2022-12-20T01:33:14;101190.22;;;9.86;74.20
69574;BME280;62840;52.366;5.980;2022-12-20T01:35:40;101194.66;;;9.85;74.10
69574;BME280;62840;52.366;5.980;2022-12-20T01:38:08;101188.28;;;9.88;74.12
69574;BME280;62840;52.366;5.980;2022-12-20T01:40:33;101188.06;;;9.91;74.13
69574;BME280;62840;52.366;5.980;2022-12-20T01:43:01;101195.06;;;9.92;74.10
69574;BME280;62840;52.366;5.980;2022-12-20T01:45:29;101191.47;;;9.93;74.09
69574;BME280;62840;52.366;5.980;2022-12-20T01:47:56;101194.88;;;9.95;74.12
69574;BME280;62840;52.366;5.980;2022-12-20T01:50:24;101188.69;;;9.94;74.14
69574;BME280;62840;52.366;5.980;2022-12-20T01:52:51;101194.88;;;9.95;74.13
69574;BME280;62840;52.366;5.980;2022-12-20T01:55:20;101190.47;;;9.94;74.21
69574;BME280;62840;52.366;5.980;2022-12-20T01:57:51;101194.13;;;9.93;74.16
69574;BME280;62840;52.366;5.980;2022-12-20T02:00:26;101191.47;;;9.93;74.28
69574;BME280;62840;52.366;5.980;2022-12-20T02:02:53;101188.06;;;9.91;74.41
69574;BME280;62840;52.366;5.980;2022-12-20T02:05:23;101181.00;;;9.90;74.53
69574;BME280;62840;52.366;5.980;2022-12-20T02:07:52;101188.28;;;9.88;74.65
69574;BME280;62840;52.366;5.980;2022-12-20T02:10:23;101182.97;;;9.88;74.75
69574;BME280;62840;52.366;5.980;2022-12-20T02:13:06;101178.69;;;9.85;74.93
69574;BME280;62840;52.366;5.980;2022-12-20T02:15:50;101185.09;;;9.82;74.88
69574;BME280;62840;52.366;5.980;2022-12-20T02:18:21;101190.66;;;9.79;75.49
69574;BME280;62840;52.366;5.980;2022-12-20T02:24:16;101167.78;;;9.77;75.65
69574;BME280;62840;52.366;5.980;2022-12-20T02:27:24;101168.84;;;9.74;75.71
69574;BME280;62840;52.366;5.980;2022-12-20T02:30:15;101179.63;;;9.73;75.93
69574;BME280;62840;52.366;5.980;2022-12-20T02:32:51;101182.38;;;9.71;75.78
69574;BME280;62840;52.366;5.980;2022-12-20T02:35:24;101177.28;;;9.68;76.06
69574;BME280;62840;52.366;5.980;2022-12-20T02:37:55;101161.31;;;9.68;76.11
69574;BME280;62840;52.366;5.980;2022-12-20T02:40:25;101154.28;;;9.67;76.17
69574;BME280;62840;52.366;5.980;2022-12-20T02:42:56;101151.59;;;9.67;76.15
69574;BME280;62840;52.366;5.980;2022-12-20T02:45:31;101145.56;;;9.65;76.26
69574;BME280;62840;52.366;5.980;2022-12-20T02:48:03;101135.25;;;9.60;76.24
69574;BME280;62840;52.366;5.980;2022-12-20T02:50:37;101126.63;;;9.57;76.34
69574;BME280;62840;52.366;5.980;2022-12-20T02:53:06;101132.59;;;9.60;76.30
69574;BME280;62840;52.366;5.980;2022-12-20T02:55:41;101131.72;;;9.60;76.12
69574;BME280;62840;52.366;5.980;2022-12-20T02:58:17;101139.72;;;9.60;76.36
69574;BME280;62840;52.366;5.980;2022-12-20T03:00:55;101144.84;;;9.63;76.42
69574;BME280;62840;52.366;5.980;2022-12-20T03:03:25;101126.19;;;9.63;76.44
69574;BME280;62840;52.366;5.980;2022-12-20T03:05:52;101132.34;;;9.63;76.52
69574;BME280;62840;52.366;5.980;2022-12-20T03:08:20;101143.97;;;9.62;76.52
69574;BME280;62840;52.366;5.980;2022-12-20T03:10:48;101142.38;;;9.60;76.47
69574;BME280;62840;52.366;5.980;2022-12-20T03:13:15;101151.09;;;9.62;76.47
69574;BME280;62840;52.366;5.980;2022-12-20T03:15:43;101149.19;;;9.64;76.63
69574;BME280;62840;52.366;5.980;2022-12-20T03:18:12;101140.44;;;9.62;76.76
69574;BME280;62840;52.366;5.980;2022-12-20T03:20:38;101138.75;;;9.61;76.72
69574;BME280;62840;52.366;5.980;2022-12-20T03:23:04;101128.13;;;9.61;76.80
69574;BME280;62840;52.366;5.980;2022-12-20T03:25:30;101131.72;;;9.60;76.75
69574;BME280;62840;52.366;5.980;2022-12-20T03:27:56;101125.44;;;9.61;76.87
69574;BME280;62840;52.366;5.980;2022-12-20T03:30:23;101123.63;;;9.61;77.01
69574;BME280;62840;52.366;5.980;2022-12-20T03:32:48;101129.81;;;9.62;76.96
69574;BME280;62840;52.366;5.980;2022-12-20T03:35:17;101132.34;;;9.63;76.98
69574;BME280;62840;52.366;5.980;2022-12-20T03:37:43;101137.69;;;9.63;77.01
69574;BME280;62840;52.366;5.980;2022-12-20T03:40:09;101128.84;;;9.63;77.01
69574;BME280;62840;52.366;5.980;2022-12-20T03:42:36;101136.94;;;9.61;76.96
69574;BME280;62840;52.366;5.980;2022-12-20T03:45:03;101126.19;;;9.63;77.08
69574;BME280;62840;52.366;5.980;2022-12-20T03:47:29;101136.84;;;9.63;76.91
69574;BME280;62840;52.366;5.980;2022-12-20T03:49:55;101127.13;;;9.62;76.96
69574;BME280;62840;52.366;5.980;2022-12-20T03:52:23;101126.19;;;9.63;76.95
69574;BME280;62840;52.366;5.980;2022-12-20T03:54:49;101122.78;;;9.61;77.05
69574;BME280;62840;52.366;5.980;2022-12-20T03:57:15;101124.47;;;9.62;77.04
69574;BME280;62840;52.366;5.980;2022-12-20T03:59:41;101115.53;;;9.63;77.09
69574;BME280;62840;52.366;5.980;2022-12-20T04:02:06;101110.31;;;9.61;76.95
69574;BME280;62840;52.366;5.980;2022-12-20T04:04:32;101105.09;;;9.60;77.11
69574;BME280;62840;52.366;5.980;2022-12-20T04:06:58;101102.44;;;9.60;77.08
69574;BME280;62840;52.366;5.980;2022-12-20T04:09:26;101099.78;;;9.60;76.98
69574;BME280;62840;52.366;5.980;2022-12-20T04:11:52;101106.81;;;9.61;77.03
69574;BME280;62840;52.366;5.980;2022-12-20T04:14:18;101101.47;;;9.61;77.14
69574;BME280;62840;52.366;5.980;2022-12-20T04:16:44;101096.16;;;9.61;77.11
69574;BME280;62840;52.366;5.980;2022-12-20T04:19:09;101101.34;;;9.62;77.13
69574;BME280;62840;52.366;5.980;2022-12-20T04:21:35;101098.59;;;9.64;77.12
69574;BME280;62840;52.366;5.980;2022-12-20T04:24:02;101093.00;;;9.67;76.97
69574;BME280;62840;52.366;5.980;2022-12-20T04:26:31;101100.78;;;9.70;77.07
69574;BME280;62840;52.366;5.980;2022-12-20T04:28:57;101089.16;;;9.71;76.95
69574;BME280;62840;52.366;5.980;2022-12-20T04:31:23;101089.91;;;9.73;77.02
69574;BME280;62840;52.366;5.980;2022-12-20T04:33:49;101083.63;;;9.74;76.93
69574;BME280;62840;52.366;5.980;2022-12-20T04:36:15;101077.31;;;9.75;77.02
69574;BME280;62840;52.366;5.980;2022-12-20T04:38:41;101082.66;;;9.75;76.83
69574;BME280;62840;52.366;5.980;2022-12-20T04:41:07;101075.38;;;9.77;76.92
69574;BME280;62840;52.366;5.980;2022-12-20T04:43:35;101083.38;;;9.77;76.90
69574;BME280;62840;52.366;5.980;2022-12-20T04:46:01;101092.22;;;9.78;76.77
69574;BME280;62840;52.366;5.980;2022-12-20T04:48:27;101092.00;;;9.81;76.92
69574;BME280;62840;52.366;5.980;2022-12-20T04:50:54;101071.53;;;9.81;76.72
69574;BME280;62840;52.366;5.980;2022-12-20T04:53:21;101064.50;;;9.80;76.60
69574;BME280;62840;52.366;5.980;2022-12-20T04:55:48;101073.22;;;9.82;76.82
69574;BME280;62840;52.366;5.980;2022-12-20T04:58:13;101069.59;;;9.83;76.70
69574;BME280;62840;52.366;5.980;2022-12-20T05:00:42;101074.69;;;9.87;76.93
69574;BME280;62840;52.366;5.980;2022-12-20T05:03:08;101072.75;;;9.89;76.83
69574;BME280;62840;52.366;5.980;2022-12-20T05:05:33;101062.94;;;9.89;76.63
69574;BME280;62840;52.366;5.980;2022-12-20T05:07:59;101063.56;;;9.93;76.61
69574;BME280;62840;52.366;5.980;2022-12-20T05:10:25;101075.06;;;9.93;76.34
69574;BME280;62840;52.366;5.980;2022-12-20T05:12:51;101063.56;;;9.93;76.61
69574;BME280;62840;52.366;5.980;2022-12-20T05:15:16;101065.25;;;9.94;76.65
69574;BME280;62840;52.366;5.980;2022-12-20T05:17:45;101064.53;;;9.92;76.66
69574;BME280;62840;52.366;5.980;2022-12-20T05:20:12;101059.94;;;9.94;76.65
69574;BME280;62840;52.366;5.980;2022-12-20T05:22:38;101045.66;;;9.95;76.69
69574;BME280;62840;52.366;5.980;2022-12-20T05:25:04;101047.34;;;9.96;76.64
69574;BME280;62840;52.366;5.980;2022-12-20T05:27:30;101049.78;;;9.99;76.71
69574;BME280;62840;52.366;5.980;2022-12-20T05:29:56;101046.88;;;10.02;76.76
69574;BME280;62840;52.366;5.980;2022-12-20T05:32:22;101050.50;;;10.01;76.53
69574;BME280;62840;52.366;5.980;2022-12-20T05:34:50;101045.16;;;10.01;76.65
69574;BME280;62840;52.366;5.980;2022-12-20T05:37:16;101048.56;;;10.03;76.68
69574;BME280;62840;52.366;5.980;2022-12-20T05:39:41;101044.94;;;10.04;76.54
69574;BME280;62840;52.366;5.980;2022-12-20T05:42:07;101040.34;;;10.06;76.54
69574;BME280;62840;52.366;5.980;2022-12-20T05:44:33;101041.09;;;10.08;76.74
69574;BME280;62840;52.366;5.980;2022-12-20T05:46:58;101039.16;;;10.10;76.68
69574;BME280;62840;52.366;5.980;2022-12-20T05:49:24;101043.25;;;10.14;76.85
69574;BME280;62840;52.366;5.980;2022-12-20T05:51:52;101040.38;;;10.17;76.83
69574;BME280;62840;52.366;5.980;2022-12-20T05:54:18;101035.78;;;10.19;77.06
69574;BME280;62840;52.366;5.980;2022-12-20T05:56:44;101026.91;;;10.19;77.10
69574;BME280;62840;52.366;5.980;2022-12-20T05:59:10;101019.88;;;10.18;76.96
69574;BME280;62840;52.366;5.980;2022-12-20T06:01:35;101020.72;;;10.18;77.22
69574;BME280;62840;52.366;5.980;2022-12-20T06:04:01;101027.78;;;10.19;77.21
69574;BME280;62840;52.366;5.980;2022-12-20T06:06:27;101026.91;;;10.19;77.14
69574;BME280;62840;52.366;5.980;2022-12-20T06:08:55;101027.03;;;10.17;77.27
69574;BME280;62840;52.366;5.980;2022-12-20T06:11:21;101029.72;;;10.17;77.47
69574;BME280;62840;52.366;5.980;2022-12-20T06:13:47;101015.41;;;10.18;77.49
69574;BME280;62840;52.366;5.980;2022-12-20T06:16:12;101020.72;;;10.18;77.46
69574;BME280;62840;52.366;5.980;2022-12-20T06:18:38;101022.44;;;10.19;77.67
69574;BME280;62840;52.366;5.980;2022-12-20T06:21:04;101018.78;;;10.20;77.45
69574;BME280;62840;52.366;5.980;2022-12-20T06:23:30;101008.13;;;10.20;77.72
69574;BME280;62840;52.366;5.980;2022-12-20T06:25:58;101007.88;;;10.23;77.61
69574;BME280;62840;52.366;5.980;2022-12-20T06:28:24;101009.72;;;10.23;77.46
69574;BME280;62840;52.366;5.980;2022-12-20T06:30:51;101014.94;;;10.24;77.66
69574;BME280;62840;52.366;5.980;2022-12-20T06:33:17;101013.94;;;10.25;77.53
69574;BME280;62840;52.366;5.980;2022-12-20T06:35:43;101016.59;;;10.25;77.46
69574;BME280;62840;52.366;5.980;2022-12-20T06:38:09;101008.59;;;10.25;77.44
69574;BME280;62840;52.366;5.980;2022-12-20T06:40:34;100998.94;;;10.24;77.47
69574;BME280;62840;52.366;5.980;2022-12-20T06:43:03;100990.22;;;10.22;77.60
69574;BME280;62840;52.366;5.980;2022-12-20T06:45:28;100986.56;;;10.23;77.62
69574;BME280;62840;52.366;5.980;2022-12-20T06:47:56;100979.53;;;10.22;77.64
69574;BME280;62840;52.366;5.980;2022-12-20T06:50:22;100979.53;;;10.22;77.88
69574;BME280;62840;52.366;5.980;2022-12-20T06:52:48;100991.88;;;10.23;77.93
69574;BME280;62840;52.366;5.980;2022-12-20T06:55:13;101000.63;;;10.25;77.73
69574;BME280;62840;52.366;5.980;2022-12-20T06:57:39;100983.78;;;10.25;77.91
69574;BME280;62840;52.366;5.980;2022-12-20T07:00:09;100985.59;;;10.24;77.92
69574;BME280;62840;52.366;5.980;2022-12-20T07:02:35;100992.88;;;10.22;77.70
69574;BME280;62840;52.366;5.980;2022-12-20T07:05:01;100995.53;;;10.22;77.64
69574;BME280;62840;52.366;5.980;2022-12-20T07:07:27;100998.19;;;10.22;77.67
69574;BME280;62840;52.366;5.980;2022-12-20T07:09:53;100991.19;;;10.21;77.74
69574;BME280;62840;52.366;5.980;2022-12-20T07:12:18;100993.84;;;10.21;77.70
69574;BME280;62840;52.366;5.980;2022-12-20T07:14:44;100985.72;;;10.23;77.65
69574;BME280;62840;52.366;5.980;2022-12-20T07:17:12;100981.22;;;10.23;77.46
69574;BME280;62840;52.366;5.980;2022-12-20T07:19:38;100988.53;;;10.21;77.70
69574;BME280;62840;52.366;5.980;2022-12-20T07:22:04;100992.13;;;10.20;77.53
69574;BME280;62840;52.366;5.980;2022-12-20T07:24:30;100984.16;;;10.20;77.62
69574;BME280;62840;52.366;5.980;2022-12-20T07:26:56;100986.91;;;10.19;77.58
69574;BME280;62840;52.366;5.980;2022-12-20T07:29:21;100980.63;;;10.20;77.64
69574;BME280;62840;52.366;5.980;2022-12-20T07:31:47;100990.47;;;10.19;77.51
69574;BME280;62840;52.366;5.980;2022-12-20T07:34:15;100987.06;;;10.17;77.54
69574;BME280;62840;52.366;5.980;2022-12-20T07:36:41;100978.34;;;10.15;77.55
69574;BME280;62840;52.366;5.980;2022-12-20T07:39:07;100986.56;;;10.12;77.43
69574;BME280;62840;52.366;5.980;2022-12-20T07:41:33;100988.28;;;10.13;77.44
69574;BME280;62840;52.366;5.980;2022-12-20T07:43:59;100983.88;;;10.12;77.26
69574;BME280;62840;52.366;5.980;2022-12-20T07:46:25;100987.53;;;10.11;77.37
69574;BME280;62840;52.366;5.980;2022-12-20T07:48:51;100979.53;;;10.11;77.31
69574;BME280;62840;52.366;5.980;2022-12-20T07:51:22;100984.13;;;10.09;77.18
69574;BME280;62840;52.366;5.980;2022-12-20T07:53:53;100987.78;;;10.08;77.21
69574;BME280;62840;52.366;5.980;2022-12-20T07:56:26;100981.47;;;10.09;77.33
69574;BME280;62840;52.366;5.980;2022-12-20T07:58:58;100968.16;;;10.09;77.33
69574;BME280;62840;52.366;5.980;2022-12-20T08:01:26;100975.06;;;10.12;77.37
69574;BME280;62840;52.366;5.980;2022-12-20T08:03:58;100988.38;;;10.12;77.25
69574;BME280;62840;52.366;5.980;2022-12-20T08:06:31;100982.09;;;10.13;77.14
69574;BME280;62840;52.366;5.980;2022-12-20T08:09:04;100995.53;;;10.11;77.34
69574;BME280;62840;52.366;5.980;2022-12-20T08:11:32;100992.13;;;10.09;77.25
69574;BME280;62840;52.366;5.980;2022-12-20T08:14:01;100994.81;;;10.09;77.19
69574;BME280;62840;52.366;5.980;2022-12-20T08:16:28;100993.13;;;10.08;77.26
69574;BME280;62840;52.366;5.980;2022-12-20T08:18:54;101000.84;;;10.11;77.31
69574;BME280;62840;52.366;5.980;2022-12-20T08:21:20;100999.88;;;10.12;77.21
69574;BME280;62840;52.366;5.980;2022-12-20T08:23:48;101005.22;;;10.12;77.19
69574;BME280;62840;52.366;5.980;2022-12-20T08:26:14;101003.53;;;10.11;77.21
69574;BME280;62840;52.366;5.980;2022-12-20T08:28:40;101009.69;;;10.12;77.25
69574;BME280;62840;52.366;5.980;2022-12-20T08:31:07;100999.88;;;10.12;77.32
69574;BME280;62840;52.366;5.980;2022-12-20T08:33:36;100991.88;;;10.12;77.41
69574;BME280;62840;52.366;5.980;2022-12-20T08:36:04;100993.59;;;10.13;77.44
69574;BME280;62840;52.366;5.980;2022-12-20T08:38:32;100987.28;;;10.14;77.17
69574;BME280;62840;52.366;5.980;2022-12-20T08:41:04;100990.69;;;10.16;77.26
69574;BME280;62840;52.366;5.980;2022-12-20T08:43:32;100983.66;;;10.15;77.33
69574;BME280;62840;52.366;5.980;2022-12-20T08:45:59;100987.28;;;10.14;77.30
69574;BME280;62840;52.366;5.980;2022-12-20T08:48:25;100985.59;;;10.13;77.36
69574;BME280;62840;52.366;5.980;2022-12-20T08:50:54;100982.94;;;10.13;77.32
69574;BME280;62840;52.366;5.980;2022-12-20T08:53:21;100984.63;;;10.14;77.40
69574;BME280;62840;52.366;5.980;2022-12-20T08:55:48;100980.28;;;10.13;77.41
69574;BME280;62840;52.366;5.980;2022-12-20T08:58:16;100978.56;;;10.12;77.55
69574;BME280;62840;52.366;5.980;2022-12-20T09:00:42;100974.94;;;10.13;77.46
69574;BME280;62840;52.366;5.980;2022-12-20T09:03:08;100978.56;;;10.12;77.43
69574;BME280;62840;52.366;5.980;2022-12-20T09:05:33;100990.94;;;10.13;77.44
69574;BME280;62840;52.366;5.980;2022-12-20T09:07:59;100989.22;;;10.12;77.58
69574;BME280;62840;52.366;5.980;2022-12-20T09:10:25;100983.88;;;10.12;77.55
69574;BME280;62840;52.366;5.980;2022-12-20T09:12:51;100987.53;;;10.11;77.46
69574;BME280;62840;52.366;5.980;2022-12-20T09:15:19;100975.19;;;10.10;77.57
69574;BME280;62840;52.366;5.980;2022-12-20T09:17:45;100974.31;;;10.10;77.44
69574;BME280;62840;52.366;5.980;2022-12-20T09:20:11;100977.84;;;10.10;77.42
69574;BME280;62840;52.366;5.980;2022-12-20T09:22:37;100985.84;;;10.10;77.47
69574;BME280;62840;52.366;5.980;2022-12-20T09:25:04;100979.66;;;10.10;77.56
69574;BME280;62840;52.366;5.980;2022-12-20T09:27:30;100980.53;;;10.10;77.56
69574;BME280;62840;52.366;5.980;2022-12-20T09:29:56;100989.22;;;10.12;77.61
69574;BME280;62840;52.366;5.980;2022-12-20T09:32:24;100990.09;;;10.13;77.35
69574;BME280;62840;52.366;5.980;2022-12-20T09:34:50;100983.88;;;10.12;77.60
69574;BME280;62840;52.366;5.980;2022-12-20T09:37:16;100988.53;;;10.10;77.65
69574;BME280;62840;52.366;5.980;2022-12-20T09:39:41;100992.25;;;10.08;77.77
69574;BME280;62840;52.366;5.980;2022-12-20T09:42:08;100981.59;;;10.08;77.83
69574;BME280;62840;52.366;5.980;2022-12-20T09:44:36;100985.13;;;10.08;77.84
69574;BME280;62840;52.366;5.980;2022-12-20T09:47:11;100983.31;;;10.09;77.94
69574;BME280;62840;52.366;5.980;2022-12-20T09:49:47;100989.47;;;10.09;77.98
69574;BME280;62840;52.366;5.980;2022-12-20T09:52:26;100984.25;;;10.08;77.92
69574;BME280;62840;52.366;5.980;2022-12-20T09:55:13;100981.47;;;10.09;77.95
69574;BME280;62840;52.366;5.980;2022-12-20T09:58:00;100973.47;;;10.09;78.12
69574;BME280;62840;52.366;5.980;2022-12-20T10:00:35;100978.81;;;10.09;78.12
69574;BME280;62840;52.366;5.980;2022-12-20T10:03:05;100976.16;;;10.09;78.07
69574;BME280;62840;52.366;5.980;2022-12-20T10:05:44;100976.03;;;10.11;77.93
69574;BME280;62840;52.366;5.980;2022-12-20T10:08:28;100978.56;;;10.12;78.11
69574;BME280;62840;52.366;5.980;2022-12-20T10:11:15;100981.94;;;10.14;77.94
69574;BME280;62840;52.366;5.980;2022-12-20T10:14:04;100984.63;;;10.14;77.98
69574;BME280;62840;52.366;5.980;2022-12-20T10:16:42;100969.63;;;10.13;78.12
69574;BME280;62840;52.366;5.980;2022-12-20T10:19:31;100970.22;;;10.17;78.04
69574;BME280;62840;52.366;5.980;2022-12-20T10:22:19;100981.00;;;10.15;78.22
69574;BME280;62840;52.366;5.980;2022-12-20T10:25:01;100985.34;;;10.16;78.09
69574;BME280;62840;52.366;5.980;2022-12-20T10:27:42;100975.56;;;10.17;78.29
69574;BME280;62840;52.366;5.980;2022-12-20T10:30:12;100980.03;;;10.16;78.49
69574;BME280;62840;52.366;5.980;2022-12-20T10:32:39;100984.41;;;10.17;78.40
69574;BME280;62840;52.366;5.980;2022-12-20T10:35:21;100983.41;;;10.18;78.35
69574;BME280;62840;52.366;5.980;2022-12-20T10:38:00;100982.47;;;10.19;78.38
69574;BME280;62840;52.366;5.980;2022-12-20T10:40:29;100965.50;;;10.20;78.57
69574;BME280;62840;52.366;5.980;2022-12-20T10:42:58;100967.19;;;10.21;78.50
69574;BME280;62840;52.366;5.980;2022-12-20T10:45:34;100973.38;;;10.22;78.54
69574;BME280;62840;52.366;5.980;2022-12-20T10:48:04;100966.94;;;10.24;78.41
69574;BME280;62840;52.366;5.980;2022-12-20T10:50:31;100959.91;;;10.23;78.50
69574;BME280;62840;52.366;5.980;2022-12-20T10:53:20;100957.97;;;10.25;78.52
69574;BME280;62840;52.366;5.980;2022-12-20T10:55:48;100954.47;;;10.25;78.58
69574;BME280;62840;52.366;5.980;2022-12-20T10:58:15;100954.34;;;10.27;78.52
69574;BME280;62840;52.366;5.980;2022-12-20T11:00:46;100947.09;;;10.29;78.60
69574;BME280;62840;52.366;5.980;2022-12-20T11:03:16;100950.69;;;10.28;78.45
69574;BME280;62840;52.366;5.980;2022-12-20T11:05:55;100941.75;;;10.29;78.56
69574;BME280;62840;52.366;5.980;2022-12-20T11:08:26;100932.75;;;10.30;78.69
69574;BME280;62840;52.366;5.980;2022-12-20T11:11:10;100943.22;;;10.33;78.80
69574;BME280;62840;52.366;5.980;2022-12-20T11:13:39;100931.56;;;10.34;78.79
69574;BME280;62840;52.366;5.980;2022-12-20T11:16:05;100935.06;;;10.34;78.58
69574;BME280;62840;52.366;5.980;2022-12-20T11:18:50;100933.13;;;10.36;78.62
69574;BME280;62840;52.366;5.980;2022-12-20T11:21:31;100931.28;;;10.37;78.65
69574;BME280;62840;52.366;5.980;2022-12-20T11:24:12;100924.03;;;10.39;78.63
69574;BME280;62840;52.366;5.980;2022-12-20T11:26:57;100921.25;;;10.40;78.58
69574;BME280;62840;52.366;5.980;2022-12-20T11:29:55;100913.25;;;10.40;78.71
69574;BME280;62840;52.366;5.980;2022-12-20T11:32:41;100904.41;;;10.40;78.66
69574;BME280;62840;52.366;5.980;2022-12-20T11:35:28;100908.75;;;10.41;78.78
69574;BME280;62840;52.366;5.980;2022-12-20T11:38:10;100910.47;;;10.42;78.92
69574;BME280;62840;52.366;5.980;2022-12-20T11:40:52;100903.19;;;10.44;78.85
69574;BME280;62840;52.366;5.980;2022-12-20T11:43:33;100908.28;;;10.47;78.79
69574;BME280;62840;52.366;5.980;2022-12-20T11:46:20;100902.94;;;10.47;78.72
69574;BME280;62840;52.366;5.980;2022-12-20T11:49:18;100906.31;;;10.49;78.68
69574;BME280;62840;52.366;5.980;2022-12-20T11:52:09;100908.00;;;10.50;78.71
69574;BME280;62840;52.366;5.980;2022-12-20T11:54:57;100904.38;;;10.51;78.71
69574;BME280;62840;52.366;5.980;2022-12-20T11:57:37;100911.41;;;10.52;78.84
69574;BME280;62840;52.366;5.980;2022-12-20T12:00:13;100905.09;;;10.53;78.79
69574;BME280;62840;52.366;5.980;2022-12-20T12:02:44;100903.28;;;10.54;78.86
69574;BME280;62840;52.366;5.980;2022-12-20T12:05:17;100910.91;;;10.58;78.60
69574;BME280;62840;52.366;5.980;2022-12-20T12:07:52;100898.28;;;10.60;78.72
69574;BME280;62840;52.366;5.980;2022-12-20T12:10:25;100903.75;;;10.59;78.77
69574;BME280;62840;52.366;5.980;2022-12-20T12:13:03;100912.59;;;10.59;78.81
69574;BME280;62840;52.366;5.980;2022-12-20T12:15:47;100903.91;;;10.57;78.75
69574;BME280;62840;52.366;5.980;2022-12-20T12:18:21;100905.56;;;10.58;78.80
69574;BME280;62840;52.366;5.980;2022-12-20T12:20:55;100895.75;;;10.59;78.77
69574;BME280;62840;52.366;5.980;2022-12-20T12:23:30;100910.66;;;10.61;78.83
69574;BME280;62840;52.366;5.980;2022-12-20T12:26:04;100905.31;;;10.61;78.95
69574;BME280;62840;52.366;5.980;2022-12-20T12:28:38;100901.69;;;10.62;79.07
69574;BME280;62840;52.366;5.980;2022-12-20T12:31:08;100901.69;;;10.62;79.06
69574;BME280;62840;52.366;5.980;2022-12-20T12:33:44;100905.06;;;10.64;78.79
69574;BME280;62840;52.366;5.980;2022-12-20T12:36:25;100903.13;;;10.66;78.91
69574;BME280;62840;52.366;5.980;2022-12-20T12:39:27;100911.13;;;10.66;78.90
69574;BME280;62840;52.366;5.980;2022-12-20T12:43:08;100893.31;;;10.67;78.88
69574;BME280;62840;52.366;5.980;2022-12-20T12:45:52;100899.75;;;10.64;78.85
69574;BME280;62840;52.366;5.980;2022-12-20T12:48:24;100892.47;;;10.66;78.75
69574;BME280;62840;52.366;5.980;2022-12-20T12:50:57;100884.31;;;10.68;79.06
69574;BME280;62840;52.366;5.980;2022-12-20T12:53:30;100886.88;;;10.70;78.84
69574;BME280;62840;52.366;5.980;2022-12-20T12:59:19;100899.47;;;10.67;79.01
69574;BME280;62840;52.366;5.980;2022-12-20T13:02:26;100890.38;;;10.70;79.09
69574;BME280;62840;52.366;5.980;2022-12-20T13:05:00;100897.53;;;10.70;78.89
69574;BME280;62840;52.366;5.980;2022-12-20T13:07:42;100895.84;;;10.69;79.05
69574;BME280;62840;52.366;5.980;2022-12-20T13:13:27;100890.53;;;10.69;78.89
69574;BME280;62840;52.366;5.980;2022-12-20T13:16:10;100890.25;;;10.72;79.09
69574;BME280;62840;52.366;5.980;2022-12-20T13:19:12;100892.81;;;10.73;78.96
69574;BME280;62840;52.366;5.980;2022-12-20T13:21:44;100888.31;;;10.74;78.94
69574;BME280;62840;52.366;5.980;2022-12-20T13:24:31;100890.00;;;10.75;78.97